AirNav   Air Wisconsin Up To $57,000 Bonus
 
 1418 users online  

7PN6 Hagan Heliport
Winterstown, Pennsylvania, USA

GOING TO WINTERSTOWN?


FAA INFORMATION EFFECTIVE 05 DECEMBER 2019

Location

FAA Identifier: 7PN6
Lat/Long: 39-49-29.0000N 076-37-48.0000W
39-49.483333N 076-37.800000W
39.8247222,-76.6300000
(estimated)
Elevation: 845 ft. / 258 m (estimated)
From city: 2 miles S of WINTERSTOWN, PA
Time zone: UTC -5 (UTC -4 during Daylight Saving Time)
Zip code: 17322

Heliport Operations

Heliport use: Private use. Permission required prior to landing
Activation date: 09/2004
Control tower: no
ARTCC: WASHINGTON CENTER
FSS: WILLIAMSPORT FLIGHT SERVICE STATION
Attendance: UNATNDD
Wind indicator: yes
Segmented circle: yes

Heliport Communications

WX ASOS at THV (12 nm NW): 119.275 (717-792-5529)

Nearby radio navigation aids

VOR radial/distance  VOR name  Freq  Var
LRPr230/23.6LANCASTER VOR/DME117.3009W
EMIr047/25.5WESTMINSTER VORTAC117.9008W
HARr155/35.0HARRISBURG VORTAC112.5010W
BALr013/39.2BALTIMORE VORTAC115.1011W

 
NDB name  Hdg/Dist  Freq  Var  ID
ELLICOTT023/33.037111WFND ..-. -. -..
BELLGROVE196/36.832810WBZJ -... --.. .---

Heliport Services

Runway Information

Helipad H1

Dimensions: 60 x 60 ft. / 18 x 18 m
Surface: turf
Traffic pattern: leftleft

Heliport Ownership and Management from official FAA records

Ownership: Privately-owned
Owner: DAVID HAGAN SR
3673 MILLERS SCHOOL RD
FELTON, PA 17322
Phone 717-246-6666
717-577-9675
Manager: DAVID H HAGAN JR
3673 MILLERS SCHOOL RD
FELTON, PA 17322
Phone 717-246-6666

Heliport Operational Statistics

Aircraft based on the field: 1
Helicopters: 1
    

Additional Remarks

FOR CD CTC WASHINGTON ARTCC AT 703-771-3587.

Instrument Procedures

There are no published instrument procedures at 7PN6.

Some nearby airports with instrument procedures:

KTHV - York Airport (12 nm NW)
N71 - Donegal Springs Airpark (16 nm N)
KDMW - Carroll County Regional Airport/Jack B Poage Field (22 nm SW)
KMDT - Harrisburg International Airport (23 nm N)
KLNS - Lancaster Airport (24 nm NE)
 
Loc | Ops | Rwys | IFR | FBO | Links
Com | Nav | Svcs | Stats | Notes
Area around 7PN6 (Hagan Heliport)
 
Road maps at: MapQuest Bing Google
 
Aerial photo
No photo
 
Sectional chart

 
Airport distance calculator
Flying to Hagan Heliport? Find the distance to fly.

From to 7PN6

Sunrise and sunset
Times for 05-Dec-2019
 Local
(UTC-5)
 Zulu
(UTC)
Morning civil twilight06:4311:43
Sunrise07:1412:14
Sunset16:4121:41
Evening civil twilight17:1122:11

Current date and time
Zulu (UTC)  05-Dec-2019 17:38:32
Local (UTC-5)  05-Dec-2019 12:38:32
 
METAR
KTHV 
13nm NW 
051653Z AUTO 31018G25KT A2990 RMK AO2 SLPNO PWINO FZRANO PNO $
KDMW 
22nm SW 
051715Z AUTO 30012G21KT 10SM BKN044 06/M03 A2991 RMK AO2
KLNS 
23nm NE 
051653Z 29023G29KT 10SM FEW049 06/M04 A2988 RMK AO2 PK WND 29029/1609 SLP121 T00611044
KMDT 
23nm N 
051656Z 30017G21KT 10SM BKN035 07/M03 A2989 RMK AO2 PK WND 28028/1637 SLP126 T00671033
KCXY 
26nm NW 
051656Z 26013KT 10SM FEW043 FEW049 BKN065 07/M04 A2991 RMK AO2 SLP131 T00721039
TAF
KLNS 
23nm NE 
051448Z 0515/0612 29015G25KT P6SM SCT040 FM060700 31007KT P6SM SKC
KMDT 
23nm N 
051448Z 0515/0612 30015G25KT P6SM BKN040 FM060700 31007KT P6SM SKC
NOTAMs
Click for the latest NOTAMs
NOTAMs are issued by the DoD/FAA and will open in a separate window not controlled by AirNav.

 

 
 

Would you like to see your business listed on this page?

 If your business provides an interesting product or service to pilots, flight crews, aircraft, or users of the Hagan Heliport, you should consider listing it here.  To start the listing process, click on the button below
 
Add a business
 

Other Pages about Hagan Heliport

Update a link
 
Copyright © AirNav, LLC. All rights reserved. Privacy Policy  Contact